Time;durP1;ratioP1;P1;durP2;ratioP2;P2;SDS_P1;SDS_P2;PMS_P1;PMS_P2;Temp;Humidity;BMP_temperature;BMP_pressure;BME280_temperature;BME280_humidity;BME280_pressure;Samples;Min_cycle;Max_cycle;Signal;HPM_P1;HPM_P2
2022/06/28 00:00:00;;;;;;;14.55;12.80;;;14.30;99.90;;;;;;5036773;28;20079;-75
2022/06/28 00:02:26;;;;;;;14.77;12.40;;;14.20;99.90;;;;;;5048607;28;20086;-75
2022/06/28 00:04:52;;;;;;;15.60;13.05;;;14.20;99.90;;;;;;5040933;28;20060;-75
2022/06/28 00:07:18;;;;;;;14.98;13.40;;;14.10;99.90;;;;;;5070401;28;20129;-75
2022/06/28 00:09:43;;;;;;;15.30;13.75;;;14.10;99.90;;;;;;5074930;28;20149;-75
2022/06/28 00:12:09;;;;;;;15.50;13.88;;;14.10;99.90;;;;;;5041635;28;20044;-75
2022/06/28 00:17:20;;;;;;;17.20;13.57;;;14.00;99.90;;;;;;5073298;28;20044;-74
2022/06/28 00:19:45;;;;;;;15.70;13.65;;;14.00;99.90;;;;;;5038884;28;20076;-74
2022/06/28 00:22:11;;;;;;;16.75;14.63;;;14.00;99.90;;;;;;5021224;28;20052;-75
2022/06/28 00:24:37;;;;;;;16.00;13.77;;;14.00;99.90;;;;;;5033642;28;20057;-75
2022/06/28 00:27:03;;;;;;;16.60;14.07;;;14.00;99.90;;;;;;5012792;28;20152;-75
2022/06/28 00:29:29;;;;;;;16.33;13.50;;;13.90;99.90;;;;;;5065057;28;20048;-75
2022/06/28 00:31:54;;;;;;;16.33;14.50;;;13.90;99.90;;;;;;5057910;28;20055;-75
2022/06/28 00:34:20;;;;;;;17.38;14.68;;;13.90;99.90;;;;;;5040339;28;20064;-75
2022/06/28 00:36:46;;;;;;;14.75;13.20;;;13.90;99.90;;;;;;5038360;28;20152;-75
2022/06/28 00:39:12;;;;;;;16.15;13.15;;;13.90;99.90;;;;;;5056920;28;20048;-74
2022/06/28 00:41:39;;;;;;;17.45;13.73;;;13.80;99.90;;;;;;5056101;28;20059;-75
2022/06/28 00:44:05;;;;;;;15.70;14.05;;;13.80;99.90;;;;;;5056904;28;20048;-74
2022/06/28 00:46:33;;;;;;;15.95;14.00;;;13.80;99.90;;;;;;5040263;28;20036;-74
2022/06/28 00:49:01;;;;;;;16.55;13.35;;;13.80;99.90;;;;;;5056938;28;20044;-75
2022/06/28 00:51:26;;;;;;;16.05;13.93;;;13.80;99.90;;;;;;5053199;28;20045;-74
2022/06/28 00:53:54;;;;;;;16.02;13.48;;;13.70;99.90;;;;;;5068425;28;20053;-75
2022/06/28 00:56:19;;;;;;;17.48;14.38;;;13.70;99.90;;;;;;5072909;28;20086;-75
2022/06/28 00:58:45;;;;;;;20.63;14.52;;;13.70;99.90;;;;;;5021912;28;20033;-75
2022/06/28 01:01:11;;;;;;;16.25;14.43;;;13.70;99.90;;;;;;5052806;28;20087;-75
2022/06/28 01:03:37;;;;;;;17.52;14.57;;;13.70;99.90;;;;;;5039713;28;20041;-75
2022/06/28 01:06:02;;;;;;;16.05;13.95;;;13.60;99.90;;;;;;5073578;28;20051;-75
2022/06/28 01:08:28;;;;;;;17.73;14.50;;;13.60;99.90;;;;;;5073842;28;20059;-76
2022/06/28 01:10:54;;;;;;;16.08;13.55;;;13.50;99.90;;;;;;5056969;28;20503;-75
2022/06/28 01:13:20;;;;;;;16.23;14.07;;;13.50;99.90;;;;;;5073685;28;20046;-75
2022/06/28 01:15:46;;;;;;;17.85;14.57;;;13.50;99.90;;;;;;5041527;28;20044;-75
2022/06/28 01:18:13;;;;;;;15.35;13.23;;;13.50;99.90;;;;;;5036066;28;20523;-75
2022/06/28 01:20:44;;;;;;;15.68;13.43;;;13.50;99.90;;;;;;5057376;28;20051;-75
2022/06/28 01:23:10;;;;;;;15.90;14.02;;;13.50;99.90;;;;;;5041197;28;20083;-75
2022/06/28 01:25:36;;;;;;;15.43;13.70;;;13.50;99.90;;;;;;5063985;28;20068;-75
2022/06/28 01:28:05;;;;;;;14.95;13.43;;;13.50;99.90;;;;;;5056455;28;20076;-75
2022/06/28 01:30:31;;;;;;;16.27;14.07;;;13.50;99.90;;;;;;5056206;28;20052;-75
2022/06/28 01:32:56;;;;;;;15.95;13.77;;;13.40;99.90;;;;;;5054069;28;20091;-74
2022/06/28 01:35:22;;;;;;;15.95;13.70;;;13.40;99.90;;;;;;5032053;28;20570;-74
2022/06/28 01:37:49;;;;;;;16.58;14.02;;;13.40;99.90;;;;;;5039325;28;20055;-75
2022/06/28 01:40:15;;;;;;;15.18;13.48;;;13.40;99.90;;;;;;5043088;28;20102;-74
2022/06/28 01:42:41;;;;;;;15.68;14.02;;;13.40;99.90;;;;;;5056781;28;20040;-76
2022/06/28 01:45:08;;;;;;;16.50;13.27;;;13.40;99.90;;;;;;5034422;28;20095;-75
2022/06/28 01:47:36;;;;;;;18.10;14.45;;;13.40;99.90;;;;;;5056031;28;20059;-75
2022/06/28 01:50:03;;;;;;;16.42;13.93;;;13.40;99.90;;;;;;5053668;28;20056;-75
2022/06/28 01:52:28;;;;;;;17.80;14.73;;;13.40;99.90;;;;;;5039274;28;20105;-75
2022/06/28 01:54:54;;;;;;;15.02;13.38;;;13.30;99.90;;;;;;5036819;28;20044;-75
2022/06/28 01:57:20;;;;;;;17.23;14.98;;;13.40;99.90;;;;;;5061518;28;20044;-75
2022/06/28 01:59:46;;;;;;;16.02;13.60;;;13.30;99.90;;;;;;5056436;28;20048;-75
2022/06/28 02:02:12;;;;;;;15.68;13.85;;;13.30;99.90;;;;;;5036951;28;20053;-75
2022/06/28 02:04:38;;;;;;;14.88;13.15;;;13.30;99.90;;;;;;5034353;28;20040;-75
2022/06/28 02:07:04;;;;;;;17.45;14.38;;;13.30;99.90;;;;;;5040118;28;20164;-75
2022/06/28 02:09:29;;;;;;;13.65;12.23;;;13.30;99.90;;;;;;5065717;28;20603;-75
2022/06/28 02:11:55;;;;;;;12.27;10.88;;;13.20;99.90;;;;;;5012592;28;20052;-75
2022/06/28 02:14:21;;;;;;;13.40;12.07;;;13.20;99.90;;;;;;5056215;28;20045;-75
2022/06/28 02:16:47;;;;;;;15.07;12.50;;;13.10;99.90;;;;;;5056308;28;20048;-75
2022/06/28 02:19:13;;;;;;;15.60;13.40;;;13.10;99.90;;;;;;5056291;28;20269;-74
2022/06/28 02:21:42;;;;;;;16.38;13.70;;;13.10;99.90;;;;;;5055391;28;20478;-75
2022/06/28 02:24:09;;;;;;;15.68;13.63;;;13.10;99.90;;;;;;5058566;28;20052;-75
2022/06/28 02:26:35;;;;;;;19.98;13.85;;;13.10;99.90;;;;;;5036336;28;20048;-74
2022/06/28 02:29:02;;;;;;;18.60;15.10;;;13.10;99.90;;;;;;5039360;28;20044;-74
2022/06/28 02:31:28;;;;;;;15.85;13.02;;;13.10;99.90;;;;;;5057150;28;20086;-75
2022/06/28 02:33:54;;;;;;;20.23;14.70;;;13.10;99.90;;;;;;5066939;28;20052;-74
2022/06/28 02:41:38;;;;;;;18.90;14.67;;;13.00;99.90;;;;;;5068348;28;20044;-75
2022/06/28 02:44:04;;;;;;;18.30;14.45;;;13.00;99.90;;;;;;5075444;28;20045;-74
2022/06/28 02:46:30;;;;;;;16.83;14.20;;;13.00;99.90;;;;;;5059560;28;20041;-74
2022/06/28 02:48:56;;;;;;;15.30;13.43;;;13.00;99.90;;;;;;5019694;28;20888;-74
2022/06/28 02:51:22;;;;;;;17.52;14.60;;;13.00;99.90;;;;;;5073512;28;20044;-74
2022/06/28 02:53:49;;;;;;;14.10;12.60;;;13.00;99.90;;;;;;5059660;28;20479;-75
2022/06/28 02:56:15;;;;;;;14.07;11.97;;;13.00;99.90;;;;;;5075666;28;20112;-75
2022/06/28 02:58:40;;;;;;;15.17;12.60;;;12.90;99.90;;;;;;5060338;28;20075;-75
2022/06/28 03:01:06;;;;;;;14.90;13.15;;;12.80;99.90;;;;;;5042003;28;20105;-75
2022/06/28 03:03:32;;;;;;;15.20;13.43;;;12.80;99.90;;;;;;5053322;28;20578;-74
2022/06/28 03:05:58;;;;;;;20.20;14.35;;;12.80;99.90;;;;;;5041799;28;20395;-76
2022/06/28 03:08:24;;;;;;;14.93;13.32;;;12.80;99.90;;;;;;5043266;28;20049;-78
2022/06/28 03:10:50;;;;;;;16.90;13.87;;;12.80;99.90;;;;;;5059137;28;20154;-76
2022/06/28 03:13:16;;;;;;;16.00;14.30;;;12.80;99.90;;;;;;5059107;28;20104;-77
2022/06/28 03:15:41;;;;;;;21.75;15.30;;;12.80;99.90;;;;;;5043187;28;20061;-75
2022/06/28 03:18:07;;;;;;;17.52;14.05;;;12.80;99.90;;;;;;5048044;28;20048;-75
2022/06/28 03:20:33;;;;;;;15.90;13.80;;;12.80;99.90;;;;;;5074781;28;20492;-76
2022/06/28 03:22:59;;;;;;;16.80;14.50;;;12.80;99.90;;;;;;5058358;28;20099;-76
2022/06/28 03:25:24;;;;;;;16.40;14.00;;;12.80;99.90;;;;;;5056480;28;20037;-75
2022/06/28 03:27:50;;;;;;;16.03;13.80;;;12.80;99.90;;;;;;5043043;28;20075;-75
2022/06/28 03:30:16;;;;;;;16.30;13.97;;;12.80;99.90;;;;;;5041165;28;20041;-75
2022/06/28 03:32:42;;;;;;;18.20;14.20;;;12.80;99.90;;;;;;5059016;28;20036;-76
2022/06/28 03:35:08;;;;;;;16.17;13.00;;;12.80;99.90;;;;;;5036067;28;20054;-75
2022/06/28 03:37:36;;;;;;;17.80;15.23;;;12.80;99.90;;;;;;5043171;28;20045;-76
2022/06/28 03:40:02;;;;;;;18.23;14.93;;;12.80;99.90;;;;;;5040608;28;20056;-75
2022/06/28 03:42:28;;;;;;;19.63;14.73;;;12.90;99.90;;;;;;5040278;28;20041;-76
2022/06/28 03:44:54;;;;;;;17.08;14.30;;;12.90;99.90;;;;;;5023093;28;20098;-76
2022/06/28 03:47:19;;;;;;;16.53;14.73;;;13.00;99.90;;;;;;5024539;28;20065;-76
2022/06/28 03:49:47;;;;;;;17.40;14.40;;;13.10;99.90;;;;;;5042476;28;20486;-75
2022/06/28 03:52:14;;;;;;;16.47;14.13;;;13.20;99.90;;;;;;5073935;28;20087;-75
2022/06/28 03:54:39;;;;;;;19.50;14.23;;;13.20;99.90;;;;;;5023708;28;20043;-75
2022/06/28 03:57:06;;;;;;;16.43;13.80;;;13.20;99.90;;;;;;5058412;28;20056;-75
2022/06/28 03:59:32;;;;;;;16.67;14.00;;;13.20;99.90;;;;;;5057914;28;20056;-76
2022/06/28 04:01:58;;;;;;;15.90;14.00;;;13.20;99.90;;;;;;5042205;28;20029;-76
2022/06/28 04:04:23;;;;;;;16.45;14.25;;;13.20;99.90;;;;;;5044947;28;20040;-76
2022/06/28 04:06:49;;;;;;;18.30;14.45;;;13.20;99.90;;;;;;5060701;28;20183;-76
2022/06/28 04:09:16;;;;;;;17.70;14.70;;;13.20;99.90;;;;;;5051117;28;20156;-76
2022/06/28 04:11:43;;;;;;;15.90;14.17;;;13.20;99.90;;;;;;5058170;28;20048;-76
2022/06/28 04:14:13;;;;;;;15.88;13.68;;;13.20;99.90;;;;;;5040911;28;20044;-75
2022/06/28 04:16:41;;;;;;;16.97;14.13;;;13.20;99.90;;;;;;5035019;28;20060;-75
2022/06/28 04:19:08;;;;;;;20.00;14.63;;;13.10;99.90;;;;;;5058410;28;20044;-75
2022/06/28 04:21:34;;;;;;;19.50;14.83;;;13.10;99.90;;;;;;5057629;28;20166;-75
2022/06/28 04:24:00;;;;;;;18.38;14.55;;;13.10;99.90;;;;;;5063901;28;20057;-76
2022/06/28 04:26:25;;;;;;;17.67;14.50;;;13.10;99.90;;;;;;5056756;28;20109;-75
2022/06/28 04:28:51;;;;;;;17.77;15.30;;;13.10;99.90;;;;;;5020788;28;20033;-73
2022/06/28 04:31:17;;;;;;;18.58;15.38;;;13.10;99.90;;;;;;5016722;28;20057;-73
2022/06/28 04:33:43;;;;;;;18.95;15.25;;;13.10;99.90;;;;;;5057820;28;20058;-73
2022/06/28 04:36:09;;;;;;;18.70;15.07;;;13.20;99.90;;;;;;5074734;28;20060;-73
2022/06/28 04:38:35;;;;;;;22.40;15.77;;;13.20;99.90;;;;;;5040330;28;20028;-73
2022/06/28 04:41:01;;;;;;;40.23;26.53;;;13.30;99.90;;;;;;5057627;28;20049;-72
2022/06/28 04:43:27;;;;;;;35.58;23.10;;;13.30;99.90;;;;;;5037267;28;20040;-74
2022/06/28 04:45:53;;;;;;;23.53;17.00;;;13.30;99.90;;;;;;5056336;28;20040;-73
2022/06/28 04:48:18;;;;;;;18.57;16.10;;;13.40;99.90;;;;;;5073475;28;20056;-73
2022/06/28 04:50:44;;;;;;;20.85;16.88;;;13.40;99.90;;;;;;5021799;28;20049;-73
2022/06/28 04:53:10;;;;;;;22.20;17.27;;;13.40;99.90;;;;;;5024111;28;20751;-73
2022/06/28 04:55:36;;;;;;;22.00;15.63;;;13.50;99.90;;;;;;5074002;28;20050;-73
2022/06/28 04:58:01;;;;;;;23.60;16.07;;;13.50;99.90;;;;;;5037833;28;20052;-73
2022/06/28 05:00:28;;;;;;;22.47;17.90;;;13.60;99.90;;;;;;5056270;28;20132;-72
2022/06/28 05:02:54;;;;;;;22.40;18.27;;;13.60;99.90;;;;;;5040595;28;20037;-72
2022/06/28 05:05:20;;;;;;;18.85;16.38;;;13.60;99.90;;;;;;5056442;28;20045;-72
2022/06/28 05:07:45;;;;;;;22.20;17.63;;;13.60;99.90;;;;;;5040268;28;20036;-73
2022/06/28 05:10:11;;;;;;;22.48;18.30;;;13.60;99.90;;;;;;5037734;28;20063;-74
2022/06/28 05:12:37;;;;;;;23.17;17.50;;;13.70;99.90;;;;;;5056205;28;20048;-74
2022/06/28 05:15:03;;;;;;;24.85;17.50;;;13.70;99.90;;;;;;5040178;28;20057;-72
2022/06/28 05:17:29;;;;;;;23.50;18.33;;;13.80;99.90;;;;;;5055822;28;20084;-72
2022/06/28 05:19:55;;;;;;;22.35;17.27;;;13.80;99.90;;;;;;5056529;28;20618;-76
2022/06/28 05:22:21;;;;;;;21.75;17.55;;;13.90;99.90;;;;;;5055130;28;20086;-76
2022/06/28 05:24:47;;;;;;;26.95;18.02;;;13.80;99.90;;;;;;5071983;28;20106;-77
2022/06/28 05:27:13;;;;;;;21.85;17.20;;;13.90;99.90;;;;;;5072479;28;20056;-79
2022/06/28 05:29:38;;;;;;;25.83;16.60;;;13.90;99.90;;;;;;5055904;28;20518;-79
2022/06/28 05:32:04;;;;;;;22.88;16.25;;;14.00;99.90;;;;;;5043142;28;21057;-79
2022/06/28 05:34:30;;;;;;;22.70;16.98;;;14.00;99.90;;;;;;5021869;28;20160;-79
2022/06/28 05:36:56;;;;;;;21.75;16.48;;;14.10;99.90;;;;;;5018642;28;20072;-80
2022/06/28 05:39:21;;;;;;;23.88;16.83;;;14.20;99.90;;;;;;5014026;28;20051;-78
2022/06/28 05:41:47;;;;;;;23.00;17.15;;;14.20;99.90;;;;;;5034661;28;20548;-80
2022/06/28 05:44:14;;;;;;;19.77;15.50;;;14.30;99.90;;;;;;5044137;28;20400;-78
2022/06/28 05:46:40;;;;;;;21.27;15.75;;;14.40;99.90;;;;;;5048386;28;20041;-78
2022/06/28 05:49:10;;;;;;;21.17;15.50;;;14.50;99.90;;;;;;5065478;28;20084;-79
2022/06/28 05:51:36;;;;;;;21.55;14.85;;;14.60;99.90;;;;;;5031061;28;20055;-80
2022/06/28 05:54:02;;;;;;;19.65;14.52;;;14.70;99.90;;;;;;5033298;28;20053;-79
2022/06/28 05:56:29;;;;;;;20.38;14.50;;;14.80;99.90;;;;;;5044528;28;20080;-79
2022/06/28 05:58:55;;;;;;;20.25;15.20;;;14.90;99.90;;;;;;5028036;28;20399;-78
2022/06/28 06:01:22;;;;;;;20.33;15.52;;;15.10;99.90;;;;;;5034670;28;20041;-79
2022/06/28 06:03:48;;;;;;;21.67;13.80;;;15.20;99.90;;;;;;5066330;28;20052;-78
2022/06/28 06:06:14;;;;;;;20.55;14.27;;;15.30;99.90;;;;;;5059485;28;20028;-79
2022/06/28 06:08:40;;;;;;;18.80;13.50;;;15.50;99.90;;;;;;5057525;28;20093;-79
2022/06/28 06:11:07;;;;;;;19.45;12.63;;;15.60;99.90;;;;;;5059727;28;20052;-79
2022/06/28 06:13:34;;;;;;;16.98;11.57;;;15.80;99.90;;;;;;5026297;28;20056;-79
2022/06/28 06:15:59;;;;;;;19.17;13.48;;;15.90;99.90;;;;;;5060840;28;20037;-78
2022/06/28 06:18:25;;;;;;;20.50;12.18;;;16.10;99.90;;;;;;5040055;28;20052;-79
2022/06/28 06:20:51;;;;;;;14.73;10.32;;;16.20;99.90;;;;;;5043632;28;20139;-79
2022/06/28 06:23:16;;;;;;;16.67;10.90;;;16.30;99.90;;;;;;5041947;28;20076;-80
2022/06/28 06:25:42;;;;;;;14.75;10.52;;;16.50;99.90;;;;;;5024818;28;20048;-78
2022/06/28 06:28:08;;;;;;;14.52;9.40;;;16.60;99.90;;;;;;5049074;28;20036;-78
2022/06/28 06:30:34;;;;;;;13.98;8.70;;;16.70;99.90;;;;;;5050256;28;20153;-79
2022/06/28 06:33:00;;;;;;;12.10;8.63;;;16.90;99.90;;;;;;5015216;28;20045;-79
2022/06/28 06:35:25;;;;;;;11.18;8.45;;;17.00;99.90;;;;;;5047010;28;20049;-80
2022/06/28 06:37:53;;;;;;;14.23;8.52;;;17.10;99.90;;;;;;5048985;28;20788;-79
2022/06/28 06:40:19;;;;;;;12.52;8.18;;;17.20;99.90;;;;;;5028381;28;20056;-82
2022/06/28 06:42:45;;;;;;;14.57;9.07;;;17.30;99.90;;;;;;5034221;28;20047;-79
2022/06/28 06:45:11;;;;;;;10.00;7.70;;;17.40;99.90;;;;;;5048905;28;20053;-79
2022/06/28 06:47:37;;;;;;;10.55;7.90;;;17.50;99.90;;;;;;5046269;28;20055;-79
2022/06/28 06:50:08;;;;;;;13.25;8.77;;;17.50;99.90;;;;;;5045558;28;20056;-80
2022/06/28 06:52:35;;;;;;;11.88;7.68;;;17.70;99.90;;;;;;5029184;28;20048;-80
2022/06/28 06:55:01;;;;;;;11.45;8.98;;;17.80;99.90;;;;;;5046473;28;20048;-79
2022/06/28 06:57:27;;;;;;;10.30;7.78;;;17.90;99.90;;;;;;5032663;28;20041;-80
2022/06/28 06:59:52;;;;;;;29.52;10.52;;;17.80;99.90;;;;;;5043561;28;20115;-81
2022/06/28 07:02:18;;;;;;;13.52;8.35;;;18.00;99.90;;;;;;5035438;28;20036;-80
2022/06/28 07:04:44;;;;;;;11.10;6.80;;;18.10;99.90;;;;;;5034106;28;20048;-80
2022/06/28 07:07:09;;;;;;;20.40;8.60;;;18.20;99.90;;;;;;5036158;28;20076;-80
2022/06/28 07:09:35;;;;;;;10.35;7.13;;;18.20;99.90;;;;;;5033610;28;20048;-80
2022/06/28 07:12:01;;;;;;;17.23;7.93;;;18.30;99.90;;;;;;5031954;28;20057;-80
2022/06/28 07:14:27;;;;;;;10.10;7.15;;;18.40;99.90;;;;;;5036254;28;20356;-80
2022/06/28 07:16:53;;;;;;;11.45;7.57;;;18.60;99.90;;;;;;5036224;28;20055;-79
2022/06/28 07:19:19;;;;;;;10.77;7.57;;;18.70;99.90;;;;;;5035691;28;20108;-79
2022/06/28 07:21:44;;;;;;;12.52;7.90;;;18.90;99.90;;;;;;5047155;28;20107;-79
2022/06/28 07:24:11;;;;;;;15.07;7.93;;;18.90;99.90;;;;;;5063984;28;20088;-79
2022/06/28 07:26:37;;;;;;;11.63;7.18;;;19.00;99.90;;;;;;5030402;28;20059;-79
2022/06/28 07:29:03;;;;;;;12.90;7.43;;;19.00;99.90;;;;;;5038523;28;20064;-80
2022/06/28 07:31:30;;;;;;;14.07;7.78;;;19.10;99.90;;;;;;5063216;28;20056;-80
2022/06/28 07:33:59;;;;;;;10.10;6.93;;;19.30;99.90;;;;;;5048988;28;20056;-81
2022/06/28 07:36:25;;;;;;;14.75;7.07;;;19.50;99.90;;;;;;5051359;28;20508;-80
2022/06/28 07:38:51;;;;;;;11.40;6.43;;;19.50;99.90;;;;;;5050834;28;20037;-80
2022/06/28 07:41:17;;;;;;;8.93;7.05;;;19.30;99.90;;;;;;5019356;28;20049;-81
2022/06/28 07:43:42;;;;;;;11.00;6.10;;;19.10;99.90;;;;;;5044033;28;20045;-80
2022/06/28 07:46:08;;;;;;;10.38;7.38;;;18.90;99.90;;;;;;5037674;28;20104;-80
2022/06/28 07:48:34;;;;;;;10.45;6.60;;;19.00;99.90;;;;;;5057941;28;20045;-81
2022/06/28 07:53:44;;;;;;;11.27;6.80;;;19.20;99.90;;;;;;5055704;28;20100;-85
2022/06/28 07:56:10;;;;;;;12.70;6.22;;;19.40;99.90;;;;;;5020395;28;20067;-82
2022/06/28 07:58:39;;;;;;;12.07;6.28;;;19.60;99.90;;;;;;5027322;28;20382;-82
2022/06/28 08:01:07;;;;;;;13.30;5.60;;;19.80;99.90;;;;;;5042067;28;20075;-78
2022/06/28 08:03:33;;;;;;;11.32;5.75;;;20.00;99.90;;;;;;5046138;28;20041;-78
2022/06/28 08:05:59;;;;;;;9.40;5.13;;;20.10;99.90;;;;;;5063501;28;20036;-79
2022/06/28 08:08:24;;;;;;;6.72;5.15;;;20.10;99.90;;;;;;5047178;28;20254;-76
2022/06/28 08:10:50;;;;;;;9.15;5.32;;;20.10;99.90;;;;;;5019879;28;20049;-78
2022/06/28 08:13:16;;;;;;;7.63;4.75;;;20.10;99.90;;;;;;5016557;28;20156;-77
2022/06/28 08:15:43;;;;;;;7.65;4.72;;;20.20;99.90;;;;;;5046294;28;20111;-77
2022/06/28 08:18:09;;;;;;;8.25;4.93;;;20.20;99.90;;;;;;5062922;28;20071;-77
2022/06/28 08:20:35;;;;;;;7.28;4.50;;;20.00;99.90;;;;;;5036443;28;20072;-77
2022/06/28 08:23:01;;;;;;;9.80;4.30;;;19.80;99.90;;;;;;5036118;28;20037;-78
2022/06/28 08:25:27;;;;;;;8.00;3.47;;;19.70;99.90;;;;;;5035998;28;20104;-80
2022/06/28 08:27:53;;;;;;;9.98;4.45;;;19.80;99.90;;;;;;5049595;28;20060;-77
2022/06/28 08:30:19;;;;;;;9.38;3.70;;;19.90;99.90;;;;;;5018823;28;20086;-75
2022/06/28 08:32:44;;;;;;;8.43;3.78;;;20.00;99.90;;;;;;5052034;28;20072;-77
2022/06/28 08:35:10;;;;;;;9.30;3.97;;;20.00;99.90;;;;;;5033454;28;20041;-77
2022/06/28 08:37:36;;;;;;;7.35;3.05;;;20.10;99.90;;;;;;5017723;28;20047;-77
2022/06/28 08:40:02;;;;;;;5.47;2.50;;;20.00;99.90;;;;;;5015465;28;20044;-78
2022/06/28 08:42:33;;;;;;;5.72;2.70;;;20.00;99.90;;;;;;5047668;28;20100;-78
2022/06/28 08:45:03;;;;;;;6.45;2.50;;;20.10;99.90;;;;;;5049285;28;20548;-80
2022/06/28 08:47:34;;;;;;;6.47;3.88;;;20.20;99.90;;;;;;5032655;28;20032;-78
2022/06/28 08:50:13;;;;;;;5.55;3.78;;;20.20;99.90;;;;;;5044431;28;20047;-79
2022/06/28 08:52:41;;;;;;;6.22;3.20;;;20.10;99.90;;;;;;5061274;28;20067;-79
2022/06/28 08:55:09;;;;;;;7.22;3.40;;;20.20;99.90;;;;;;5033178;28;20048;-79
2022/06/28 08:57:35;;;;;;;9.65;3.00;;;20.20;99.90;;;;;;5061679;28;20119;-84
2022/06/28 09:00:05;;;;;;;8.38;3.25;;;19.90;99.90;;;;;;5044954;28;20068;-79
2022/06/28 09:02:31;;;;;;;4.95;2.70;;;19.90;99.90;;;;;;5034543;28;21098;-79
2022/06/28 09:04:59;;;;;;;6.70;2.58;;;20.10;99.90;;;;;;5013892;28;20112;-82
2022/06/28 09:07:25;;;;;;;4.85;2.42;;;20.40;99.90;;;;;;5067385;28;20052;-80
2022/06/28 09:09:51;;;;;;;8.82;3.03;;;20.40;99.90;;;;;;5027915;28;20119;-78
2022/06/28 09:12:18;;;;;;;12.50;4.60;;;20.40;99.90;;;;;;5031138;28;20113;-79
2022/06/28 09:14:44;;;;;;;9.23;3.38;;;20.30;99.90;;;;;;5041149;28;20516;-80
2022/06/28 09:17:18;;;;;;;6.40;2.53;;;20.40;99.90;;;;;;5061154;28;20049;-77
2022/06/28 09:19:44;;;;;;;7.93;2.50;;;20.60;99.90;;;;;;5050065;28;21338;-78
2022/06/28 09:22:26;;;;;;;6.63;3.58;;;20.90;99.90;;;;;;5042516;28;20063;-78
2022/06/28 09:24:52;;;;;;;6.13;2.70;;;20.90;99.90;;;;;;5043865;28;20408;-78
2022/06/28 09:27:34;;;;;;;4.68;1.98;;;21.00;99.90;;;;;;5016531;28;20037;-78
2022/06/28 09:30:00;;;;;;;;;;;21.10;99.90;;;;;;5055199;28;20057;-79
2022/06/28 09:32:31;;;;;;;5.22;1.55;;;21.10;99.90;;;;;;5043865;28;19956;-78
2022/06/28 09:35:03;;;;;;;7.50;2.00;;;21.20;99.90;;;;;;5031012;28;20057;-79
2022/06/28 09:37:39;;;;;;;6.13;1.27;;;21.30;99.90;;;;;;5057952;28;20112;-78
2022/06/28 09:40:10;;;;;;;4.40;2.25;;;21.50;99.90;;;;;;5047236;28;20067;-78
2022/06/28 09:42:36;;;;;;;4.07;2.13;;;21.70;99.90;;;;;;5051521;28;20503;-79
2022/06/28 09:45:03;;;;;;;7.00;1.80;;;21.80;99.90;;;;;;5038274;28;20052;-79
2022/06/28 09:47:29;;;;;;;5.10;1.75;;;21.70;99.90;;;;;;5037247;28;20083;-79
2022/06/28 09:49:54;;;;;;;5.40;2.22;;;21.90;99.90;;;;;;5069443;28;20040;-78
2022/06/28 09:52:26;;;;;;;3.55;1.60;;;22.20;99.90;;;;;;5039223;28;20527;-77
2022/06/28 09:54:54;;;;;;;;;;;22.30;99.90;;;;;;5053498;28;20062;-78
2022/06/28 09:57:21;;;;;;;6.93;2.20;;;22.30;99.90;;;;;;5047067;28;19960;-79
2022/06/28 09:59:49;;;;;;;4.80;2.10;;;22.50;99.90;;;;;;5043917;28;20072;-79
2022/06/28 10:02:16;;;;;;;4.13;1.65;;;22.50;99.90;;;;;;5068227;28;20041;-79
2022/06/28 10:04:44;;;;;;;5.75;1.92;;;22.50;99.90;;;;;;5051129;28;20051;-79
2022/06/28 10:07:11;;;;;;;5.45;1.95;;;22.50;99.90;;;;;;5044524;28;20527;-78
2022/06/28 10:09:37;;;;;;;4.13;1.60;;;22.60;99.90;;;;;;5052454;28;20041;-78
2022/06/28 10:15:02;;;;;;;3.95;1.90;;;22.70;99.90;;;;;;5061942;28;20048;-77
2022/06/28 10:17:46;;;;;;;4.22;1.90;;;22.60;99.90;;;;;;5047872;28;20500;-79
2022/06/28 10:20:19;;;;;;;5.68;1.73;;;22.60;99.90;;;;;;5054603;28;20041;-79
2022/06/28 10:22:44;;;;;;;5.07;1.70;;;22.40;99.90;;;;;;5066213;28;20095;-78
2022/06/28 10:25:16;;;;;;;5.38;1.67;;;22.50;99.90;;;;;;5041232;28;20037;-78
2022/06/28 10:27:49;;;;;;;;;;;22.60;99.90;;;;;;5065946;28;20095;-78
2022/06/28 10:30:25;;;;;;;3.95;1.50;;;22.70;99.90;;;;;;5044604;28;19924;-77
2022/06/28 10:32:56;;;;;;;4.88;2.00;;;22.60;99.90;;;;;;5070239;28;20674;-76
2022/06/28 10:35:31;;;;;;;6.57;1.67;;;22.50;99.90;;;;;;5066065;28;20053;-76
2022/06/28 10:38:09;;;;;;;4.30;1.75;;;22.40;99.90;;;;;;5048474;28;20049;-78
2022/06/28 10:40:41;;;;;;;7.05;2.17;;;22.20;99.90;;;;;;5044370;28;20067;-76
2022/06/28 10:43:08;;;;;;;5.70;1.60;;;22.30;99.90;;;;;;5040720;28;20057;-75
2022/06/28 10:46:05;;;;;;;5.97;1.52;;;22.50;99.90;;;;;;5042846;28;20132;-75
2022/06/28 10:48:50;;;;;;;4.13;1.38;;;22.80;99.90;;;;;;5047259;28;20041;-76
2022/06/28 10:51:17;;;;;;;5.78;1.40;;;22.90;99.90;;;;;;5067355;28;20130;-75
2022/06/28 10:54:00;;;;;;;5.65;1.88;;;22.50;99.90;;;;;;5059201;28;20292;-75
2022/06/28 10:56:27;;;;;;;5.80;1.60;;;22.10;99.90;;;;;;5057816;28;20044;-75
2022/06/28 10:58:57;;;;;;;7.97;1.95;;;21.90;99.90;;;;;;5059231;28;20045;-76
2022/06/28 11:01:44;;;;;;;3.95;1.60;;;22.10;99.90;;;;;;5041867;28;20048;-76
2022/06/28 11:04:30;;;;;;;4.47;1.88;;;22.50;99.90;;;;;;5073976;28;20048;-75
2022/06/28 11:07:04;;;;;;;4.40;1.80;;;22.80;99.90;;;;;;5059540;28;20605;-75
2022/06/28 11:09:54;;;;;;;4.63;1.60;;;23.10;99.90;;;;;;5058075;28;20044;-75
2022/06/28 11:12:30;;;;;;;6.03;2.05;;;23.20;99.90;;;;;;5053915;28;20127;-76
2022/06/28 11:15:03;;;;;;;3.47;1.77;;;23.20;99.90;;;;;;5064459;28;20065;-76
2022/06/28 11:17:35;;;;;;;4.90;1.70;;;23.40;99.90;;;;;;5057275;28;20091;-76
2022/06/28 11:20:04;;;;;;;2.95;1.30;;;23.60;99.90;;;;;;5075460;28;20040;-76
2022/06/28 11:22:31;;;;;;;4.70;1.67;;;23.80;99.90;;;;;;5057062;28;20068;-76
2022/06/28 11:24:59;;;;;;;3.92;1.35;;;23.90;99.90;;;;;;5050925;28;20124;-75
2022/06/28 11:27:26;;;;;;;4.28;1.20;;;23.90;99.90;;;;;;5051445;28;20036;-76
2022/06/28 11:30:01;;;;;;;6.43;1.77;;;23.60;99.90;;;;;;5074035;28;20052;-76
2022/06/28 11:32:35;;;;;;;3.67;1.50;;;23.60;99.10;;;;;;5057822;28;20048;-76
2022/06/28 11:35:06;;;;;;;3.10;1.55;;;23.60;99.90;;;;;;5057252;28;20482;-76
2022/06/28 11:37:46;;;;;;;2.90;1.00;;;23.40;98.80;;;;;;5073979;28;20055;-76
2022/06/28 11:40:12;;;;;;;2.22;1.35;;;23.50;99.90;;;;;;5057489;28;20040;-75
2022/06/28 11:42:38;;;;;;;3.05;1.30;;;23.30;99.90;;;;;;5057254;28;20045;-75
2022/06/28 11:45:04;;;;;;;4.65;1.35;;;23.30;99.90;;;;;;5057809;28;20095;-75
2022/06/28 11:47:30;;;;;;;4.85;1.23;;;23.40;99.90;;;;;;5040219;28;20044;-76
2022/06/28 11:50:13;;;;;;;4.60;1.27;;;23.50;99.90;;;;;;5046099;28;20120;-76
2022/06/28 11:52:53;;;;;;;2.58;1.13;;;23.70;99.00;;;;;;5057151;28;20044;-75
2022/06/28 11:55:43;;;;;;;2.80;1.30;;;24.00;98.90;;;;;;5042028;28;20089;-75
2022/06/28 11:58:14;;;;;;;4.90;1.25;;;24.10;98.20;;;;;;5052279;28;20526;-76
2022/06/28 12:01:00;;;;;;;3.53;1.50;;;24.20;97.60;;;;;;5072410;28;20344;-75
2022/06/28 12:03:26;;;;;;;7.32;1.45;;;24.10;93.30;;;;;;5056557;28;20033;-76
2022/06/28 12:05:57;;;;;;;3.90;1.70;;;23.60;99.90;;;;;;5056569;28;20565;-76
2022/06/28 12:08:40;;;;;;;4.18;1.60;;;23.30;99.90;;;;;;5040569;28;20036;-76
2022/06/28 12:11:06;;;;;;;3.17;1.20;;;23.30;97.70;;;;;;5057511;28;20075;-76
2022/06/28 12:13:32;;;;;;;2.53;1.17;;;23.50;99.90;;;;;;5056882;28;20044;-75
2022/06/28 12:15:58;;;;;;;4.25;1.27;;;23.70;99.90;;;;;;5054796;28;20528;-76
2022/06/28 12:18:24;;;;;;;4.63;1.75;;;23.90;99.20;;;;;;5034762;28;20098;-75
2022/06/28 12:20:58;;;;;;;4.20;1.58;;;23.60;99.90;;;;;;5040403;28;20044;-75
2022/06/28 12:23:24;;;;;;;7.53;1.42;;;23.40;98.00;;;;;;5057049;28;20492;-75
2022/06/28 12:26:02;;;;;;;3.95;1.13;;;23.10;99.90;;;;;;5038548;28;20067;-75
2022/06/28 12:28:28;;;;;;;3.33;1.42;;;22.80;99.90;;;;;;5074127;28;20579;-75
2022/06/28 12:30:54;;;;;;;4.60;1.50;;;22.60;99.90;;;;;;5039125;28;20078;-76
2022/06/28 12:33:19;;;;;;;3.38;1.20;;;22.60;99.90;;;;;;5036682;28;20511;-76
2022/06/28 12:35:45;;;;;;;6.72;1.83;;;22.60;99.90;;;;;;5054270;28;20048;-76
2022/06/28 12:38:11;;;;;;;4.38;1.73;;;22.50;99.90;;;;;;5036052;28;20086;-76
2022/06/28 12:40:36;;;;;;;3.55;1.58;;;22.40;99.90;;;;;;5017505;28;20127;-77
2022/06/28 12:43:02;;;;;;;4.25;1.30;;;22.40;99.90;;;;;;5032530;28;20068;-76
2022/06/28 12:45:28;;;;;;;3.08;1.42;;;22.80;99.90;;;;;;5017824;28;20051;-76
2022/06/28 12:47:53;;;;;;;7.18;1.58;;;23.10;99.90;;;;;;5030025;28;20068;-75
2022/06/28 12:50:19;;;;;;;5.07;1.48;;;23.50;99.90;;;;;;5031041;28;20131;-75